Time;durP1;ratioP1;P1;durP2;ratioP2;P2;SDS_P1;SDS_P2;PMS_P1;PMS_P2;Temp;Humidity;BMP_temperature;BMP_pressure;BME280_temperature;BME280_humidity;BME280_pressure;Samples;Min_cycle;Max_cycle;Signal;HPM_P1;HPM_P2
2022/03/10 00:02:07;;;;;;;3.05;1.55;;;11.30;78.90;;;;;;5133189;27;20023;-82
2022/03/10 00:04:33;;;;;;;2.10;1.30;;;11.30;79.00;;;;;;5132837;27;20034;-81
2022/03/10 00:07:02;;;;;;;2.92;1.42;;;11.40;80.70;;;;;;5115166;27;20074;-81
2022/03/10 00:09:27;;;;;;;2.03;1.27;;;11.40;79.70;;;;;;5115637;27;20023;-81
2022/03/10 00:11:53;;;;;;;2.22;1.23;;;11.40;79.10;;;;;;5135825;27;20030;-81
2022/03/10 00:14:18;;;;;;;2.30;1.35;;;11.50;79.30;;;;;;5134556;27;20034;-81
2022/03/10 00:16:44;;;;;;;2.45;1.00;;;11.50;79.00;;;;;;5134422;27;20054;-81
2022/03/10 00:19:12;;;;;;;2.80;1.10;;;11.60;79.70;;;;;;5134176;27;20031;-81
2022/03/10 00:21:40;;;;;;;2.65;1.35;;;11.60;79.30;;;;;;5134582;27;20114;-81
2022/03/10 00:24:06;;;;;;;2.85;1.13;;;11.60;78.90;;;;;;5136442;27;20507;-81
2022/03/10 00:26:32;;;;;;;2.30;1.10;;;11.60;78.80;;;;;;5134440;27;20032;-81
2022/03/10 00:28:57;;;;;;;3.78;1.58;;;11.60;78.80;;;;;;5135402;27;20023;-81
2022/03/10 00:31:23;;;;;;;2.70;1.42;;;11.60;78.40;;;;;;5134425;27;20026;-81
2022/03/10 00:33:49;;;;;;;2.80;1.40;;;11.60;79.60;;;;;;5115741;27;20503;-81
2022/03/10 00:36:15;;;;;;;5.40;1.50;;;11.60;78.80;;;;;;5117190;27;20031;-81
2022/03/10 00:38:41;;;;;;;3.67;1.60;;;11.60;78.60;;;;;;5135208;27;20030;-81
2022/03/10 00:41:09;;;;;;;4.28;1.38;;;11.60;78.90;;;;;;5115764;27;20023;-81
2022/03/10 00:43:35;;;;;;;3.45;1.45;;;11.60;78.90;;;;;;5115611;27;20106;-81
2022/03/10 00:46:01;;;;;;;3.00;1.40;;;11.60;78.90;;;;;;5134107;27;20074;-81
2022/03/10 00:48:26;;;;;;;3.13;1.33;;;11.60;79.20;;;;;;5133494;27;20423;-81
2022/03/10 00:50:52;;;;;;;2.88;1.33;;;11.60;79.00;;;;;;5117630;27;20023;-81
2022/03/10 00:53:17;;;;;;;4.60;1.33;;;11.60;78.50;;;;;;5115760;27;20483;-80
2022/03/10 00:55:43;;;;;;;2.38;1.02;;;11.60;79.00;;;;;;5133796;27;20031;-80
2022/03/10 00:58:09;;;;;;;2.50;1.25;;;11.60;79.10;;;;;;5133273;27;20446;-81
2022/03/10 01:00:34;;;;;;;2.53;1.23;;;11.60;79.20;;;;;;5133843;27;20030;-81
2022/03/10 01:03:00;;;;;;;3.03;1.58;;;11.70;79.60;;;;;;5135476;27;20538;-81
2022/03/10 01:05:25;;;;;;;1.98;1.30;;;11.70;80.40;;;;;;5133580;27;20035;-81
2022/03/10 01:07:51;;;;;;;2.30;1.20;;;11.60;79.70;;;;;;5132391;27;20399;-81
2022/03/10 01:10:18;;;;;;;3.22;1.30;;;11.60;79.20;;;;;;5133557;27;20027;-81
2022/03/10 01:12:45;;;;;;;2.55;1.42;;;11.60;79.30;;;;;;5133738;27;20068;-81
2022/03/10 01:15:16;;;;;;;2.80;1.13;;;11.60;79.30;;;;;;5135386;27;20376;-81
2022/03/10 01:17:42;;;;;;;3.15;1.23;;;11.60;79.10;;;;;;5133688;27;20012;-81
2022/03/10 01:20:08;;;;;;;1.90;1.30;;;11.40;79.20;;;;;;5133229;27;20167;-81
2022/03/10 01:22:37;;;;;;;2.92;1.10;;;11.30;79.80;;;;;;5114946;27;20031;-81
2022/03/10 01:25:07;;;;;;;2.55;1.15;;;11.30;79.60;;;;;;5133427;27;20114;-81
2022/03/10 01:27:33;;;;;;;3.15;1.20;;;11.20;81.20;;;;;;5115044;27;20027;-81
2022/03/10 01:30:00;;;;;;;2.53;1.30;;;11.10;80.00;;;;;;5135400;27;20030;-81
2022/03/10 01:32:26;;;;;;;2.60;1.02;;;11.10;80.50;;;;;;5132651;27;20047;-82
2022/03/10 01:34:52;;;;;;;4.53;1.23;;;11.00;80.60;;;;;;5133098;27;20123;-82
2022/03/10 01:37:18;;;;;;;2.63;1.58;;;11.00;80.60;;;;;;5133116;27;20028;-82
2022/03/10 01:39:44;;;;;;;3.67;1.10;;;10.90;80.80;;;;;;5114527;27;20492;-81
2022/03/10 01:42:10;;;;;;;3.72;1.10;;;10.80;81.00;;;;;;5135230;27;20027;-81
2022/03/10 01:44:36;;;;;;;3.72;1.17;;;10.80;80.90;;;;;;5131674;27;20055;-81
2022/03/10 01:47:02;;;;;;;2.63;0.98;;;10.80;82.30;;;;;;5130967;27;20513;-81
2022/03/10 01:49:28;;;;;;;2.65;1.30;;;10.80;83.30;;;;;;5114351;27;20034;-80
2022/03/10 01:51:54;;;;;;;1.65;1.13;;;10.70;82.40;;;;;;5132783;27;20046;-81
2022/03/10 01:54:20;;;;;;;2.88;1.25;;;10.70;81.60;;;;;;5133715;27;20102;-80
2022/03/10 01:56:47;;;;;;;4.47;1.35;;;10.60;82.60;;;;;;5115864;27;20030;-81
2022/03/10 01:59:14;;;;;;;2.75;1.10;;;10.60;82.20;;;;;;5114267;27;20019;-80
2022/03/10 02:01:40;;;;;;;3.20;1.17;;;10.70;81.80;;;;;;5132115;27;20026;-81
2022/03/10 02:04:06;;;;;;;3.67;1.45;;;10.60;82.70;;;;;;5113724;27;20023;-81
2022/03/10 02:06:32;;;;;;;2.60;1.30;;;10.60;82.20;;;;;;5132639;27;20092;-81
2022/03/10 02:11:42;;;;;;;2.83;1.13;;;10.60;81.70;;;;;;5132490;27;20088;-79
2022/03/10 02:19:37;;;;;;;3.33;1.33;;;10.60;81.80;;;;;;5132117;27;20030;-80
2022/03/10 02:22:07;;;;;;;3.05;1.20;;;10.60;82.30;;;;;;5132292;27;20027;-81
2022/03/10 02:24:36;;;;;;;3.55;1.20;;;10.60;82.10;;;;;;5113243;27;20110;-81
2022/03/10 02:27:23;;;;;;;3.40;1.25;;;10.70;82.10;;;;;;5133588;27;20023;-81
2022/03/10 02:29:53;;;;;;;4.97;1.27;;;10.60;82.60;;;;;;5135805;27;20039;-81
2022/03/10 02:32:20;;;;;;;2.72;1.20;;;10.70;83.30;;;;;;5131804;27;20106;-81
2022/03/10 02:34:47;;;;;;;3.20;1.50;;;10.70;82.00;;;;;;5132030;27;20074;-80
2022/03/10 02:37:13;;;;;;;3.08;1.25;;;10.70;82.00;;;;;;5132062;27;20071;-81
2022/03/10 02:39:40;;;;;;;2.60;1.15;;;10.70;82.10;;;;;;5132003;27;20058;-81
2022/03/10 02:42:07;;;;;;;2.65;1.30;;;10.70;81.70;;;;;;5123873;27;20061;-81
2022/03/10 02:44:33;;;;;;;3.55;1.70;;;10.60;81.50;;;;;;5129503;27;20046;-81
2022/03/10 02:46:58;;;;;;;2.92;2.25;;;10.60;81.80;;;;;;5131637;27;20381;-81
2022/03/10 02:49:24;;;;;;;7.13;4.95;;;10.60;82.10;;;;;;5131781;27;20030;-81
2022/03/10 02:51:50;;;;;;;11.38;7.95;;;10.60;82.70;;;;;;5113552;27;20019;-82
2022/03/10 02:54:17;;;;;;;11.10;7.82;;;10.60;82.10;;;;;;5133124;27;20088;-82
2022/03/10 02:56:43;;;;;;;9.95;7.93;;;10.60;82.00;;;;;;5132985;27;20011;-82
2022/03/10 02:59:10;;;;;;;16.55;10.30;;;10.60;82.20;;;;;;5131285;27;20042;-80
2022/03/10 03:01:36;;;;;;;21.95;12.10;;;10.60;82.70;;;;;;5131574;27;20023;-82
2022/03/10 03:04:02;;;;;;;17.65;10.85;;;10.60;82.40;;;;;;5129987;27;20034;-81
2022/03/10 03:06:27;;;;;;;15.60;9.30;;;10.70;82.50;;;;;;5112429;27;20031;-80
2022/03/10 03:08:53;;;;;;;13.30;8.27;;;10.80;82.40;;;;;;5133054;27;20027;-81
2022/03/10 03:11:19;;;;;;;17.83;6.85;;;10.80;82.00;;;;;;5131378;27;20049;-81
2022/03/10 03:13:44;;;;;;;9.63;5.68;;;10.90;81.90;;;;;;5130548;27;20034;-81
2022/03/10 03:16:10;;;;;;;7.35;4.20;;;10.90;82.30;;;;;;5112371;27;20023;-81
2022/03/10 03:18:35;;;;;;;7.40;3.67;;;11.00;82.10;;;;;;5131022;27;20427;-80
2022/03/10 03:21:01;;;;;;;4.20;2.15;;;11.00;81.70;;;;;;5114618;27;20057;-81
2022/03/10 03:23:27;;;;;;;3.58;1.83;;;11.00;81.80;;;;;;5131221;27;20088;-81
2022/03/10 03:25:53;;;;;;;4.30;1.60;;;11.00;81.70;;;;;;5131345;27;20080;-81
2022/03/10 03:28:22;;;;;;;2.50;1.50;;;11.10;81.50;;;;;;5130937;27;20484;-81
2022/03/10 03:30:49;;;;;;;2.85;1.50;;;11.00;80.80;;;;;;5131337;27;20510;-81
2022/03/10 03:33:15;;;;;;;2.45;1.20;;;10.90;81.20;;;;;;5132751;27;20045;-82
2022/03/10 03:35:41;;;;;;;1.73;1.10;;;10.80;81.20;;;;;;5131842;27;20076;-81
2022/03/10 03:38:07;;;;;;;2.20;1.10;;;10.80;81.80;;;;;;5131142;27;20045;-80
2022/03/10 03:40:33;;;;;;;3.50;1.20;;;10.80;83.00;;;;;;5131048;27;20483;-80
2022/03/10 03:42:59;;;;;;;4.38;1.30;;;10.80;81.90;;;;;;5129476;27;20037;-80
2022/03/10 03:45:24;;;;;;;2.28;0.93;;;10.90;82.80;;;;;;5098081;28;20064;-81
2022/03/10 03:47:50;;;;;;;1.92;1.00;;;10.90;82.00;;;;;;5091034;28;20035;-81
2022/03/10 03:50:16;;;;;;;2.63;1.20;;;10.90;81.30;;;;;;5088843;28;20023;-81
2022/03/10 03:52:41;;;;;;;1.70;1.02;;;10.90;81.20;;;;;;5090089;28;20485;-81
2022/03/10 03:55:08;;;;;;;3.53;1.23;;;10.80;81.10;;;;;;5090258;28;20016;-82
2022/03/10 03:57:34;;;;;;;2.42;0.90;;;10.70;81.30;;;;;;5089841;28;20055;-81
2022/03/10 03:59:59;;;;;;;2.25;1.00;;;10.70;81.50;;;;;;5091138;28;20149;-81
2022/03/10 04:02:25;;;;;;;2.30;1.00;;;10.70;81.40;;;;;;5089924;28;20039;-81
2022/03/10 04:04:50;;;;;;;2.78;1.00;;;10.60;81.60;;;;;;5089985;28;20040;-80
2022/03/10 04:07:16;;;;;;;2.83;1.17;;;10.60;81.70;;;;;;5090179;28;20384;-80
2022/03/10 04:09:42;;;;;;;2.53;1.40;;;10.70;81.90;;;;;;5088767;28;20028;-80
2022/03/10 04:12:08;;;;;;;3.72;0.90;;;10.70;82.10;;;;;;5091986;28;20124;-81
2022/03/10 04:14:34;;;;;;;2.78;1.10;;;10.70;82.10;;;;;;5089996;28;20028;-81
2022/03/10 04:17:00;;;;;;;3.92;1.10;;;10.70;82.10;;;;;;5089868;28;20039;-80
2022/03/10 04:19:25;;;;;;;2.08;1.23;;;10.80;82.10;;;;;;5089978;28;20020;-80
2022/03/10 04:21:51;;;;;;;2.67;1.13;;;10.80;82.10;;;;;;5088705;28;20424;-81
2022/03/10 04:24:16;;;;;;;2.65;0.98;;;10.80;82.20;;;;;;5091107;28;20032;-81
2022/03/10 04:26:42;;;;;;;1.83;0.93;;;10.80;82.00;;;;;;5090759;28;20046;-81
2022/03/10 04:29:08;;;;;;;2.50;1.10;;;10.90;82.20;;;;;;5088601;28;20078;-81
2022/03/10 04:31:34;;;;;;;3.10;1.20;;;10.90;83.10;;;;;;5089874;28;20024;-81
2022/03/10 04:33:59;;;;;;;2.22;1.15;;;10.90;81.90;;;;;;5091469;28;20480;-81
2022/03/10 04:36:25;;;;;;;3.60;1.38;;;10.90;81.90;;;;;;5093697;28;20032;-81
2022/03/10 04:38:51;;;;;;;2.72;1.17;;;10.90;82.50;;;;;;5095713;28;20111;-81
2022/03/10 04:41:16;;;;;;;2.90;1.23;;;10.90;82.00;;;;;;5093093;28;20035;-82
2022/03/10 04:43:42;;;;;;;2.35;1.10;;;10.90;82.10;;;;;;5093473;28;20024;-81
2022/03/10 04:46:08;;;;;;;2.97;1.30;;;10.90;81.90;;;;;;5127627;27;20095;-81
2022/03/10 04:48:34;;;;;;;3.35;1.50;;;10.90;81.80;;;;;;5134341;27;20118;-80
2022/03/10 04:51:00;;;;;;;3.55;1.35;;;10.90;82.10;;;;;;5136526;27;20155;-80
2022/03/10 04:53:26;;;;;;;2.42;1.40;;;10.90;82.20;;;;;;5115588;27;20019;-81
2022/03/10 04:55:52;;;;;;;2.97;1.33;;;10.90;81.80;;;;;;5115383;27;20027;-80
2022/03/10 04:58:18;;;;;;;3.75;1.30;;;10.90;81.90;;;;;;5134070;27;20031;-80
2022/03/10 05:00:43;;;;;;;3.20;1.40;;;10.90;81.90;;;;;;5114324;28;20656;-81
2022/03/10 05:03:09;;;;;;;2.70;1.40;;;10.90;81.80;;;;;;5136345;27;20511;-81
2022/03/10 05:05:34;;;;;;;3.00;1.70;;;10.90;82.90;;;;;;5132552;27;20514;-81
2022/03/10 05:08:00;;;;;;;3.22;2.03;;;10.90;82.00;;;;;;5134028;27;20232;-81
2022/03/10 05:10:26;;;;;;;2.45;1.40;;;10.80;82.00;;;;;;5133499;27;20027;-80
2022/03/10 05:12:54;;;;;;;2.55;1.38;;;10.80;81.80;;;;;;5115431;27;20475;-80
2022/03/10 05:15:21;;;;;;;4.85;1.60;;;10.80;81.80;;;;;;5116497;27;20027;-79
2022/03/10 05:17:47;;;;;;;2.85;1.50;;;10.70;81.60;;;;;;5135345;27;20020;-79
2022/03/10 05:20:14;;;;;;;3.20;1.70;;;10.60;82.20;;;;;;5133601;27;20027;-80
2022/03/10 05:22:45;;;;;;;2.83;1.52;;;10.60;82.50;;;;;;5133773;27;20027;-79
2022/03/10 05:25:11;;;;;;;3.22;1.60;;;10.60;82.90;;;;;;5133402;27;20039;-80
2022/03/10 05:27:37;;;;;;;3.92;1.60;;;10.60;82.20;;;;;;5132634;27;20031;-80
2022/03/10 05:30:04;;;;;;;3.50;1.63;;;10.60;82.70;;;;;;5135256;27;20068;-79
2022/03/10 05:32:30;;;;;;;2.78;1.77;;;10.60;82.70;;;;;;5132018;27;20079;-80
2022/03/10 05:34:55;;;;;;;4.80;1.42;;;10.60;82.50;;;;;;5114937;27;20436;-80
2022/03/10 05:37:21;;;;;;;2.00;1.08;;;10.70;82.40;;;;;;5133403;27;20034;-79
2022/03/10 05:39:47;;;;;;;3.95;1.50;;;10.70;83.10;;;;;;5113208;27;20036;-79
2022/03/10 05:42:12;;;;;;;4.45;1.73;;;10.60;83.20;;;;;;5134749;27;20020;-79
2022/03/10 05:44:38;;;;;;;3.83;1.70;;;10.70;82.30;;;;;;5116014;27;20058;-81
2022/03/10 05:47:06;;;;;;;3.38;1.90;;;10.60;82.40;;;;;;5114663;27;20415;-80
2022/03/10 05:49:32;;;;;;;3.17;2.00;;;10.60;82.50;;;;;;5133106;27;20126;-80
2022/03/10 05:51:58;;;;;;;3.35;2.00;;;10.60;82.60;;;;;;5133282;27;20035;-80
2022/03/10 05:54:24;;;;;;;4.72;2.20;;;10.60;82.40;;;;;;5132928;27;20022;-80
2022/03/10 05:56:49;;;;;;;3.72;1.85;;;10.60;82.60;;;;;;5135148;27;20031;-80
2022/03/10 05:59:15;;;;;;;3.28;1.85;;;10.70;83.50;;;;;;5132906;27;20047;-80
2022/03/10 06:01:40;;;;;;;3.35;1.92;;;10.60;82.30;;;;;;5132906;27;20040;-80
2022/03/10 06:04:06;;;;;;;3.60;2.38;;;10.60;82.40;;;;;;5113229;27;20017;-80
2022/03/10 06:06:32;;;;;;;5.28;2.40;;;10.60;82.30;;;;;;5132740;27;20430;-80
2022/03/10 06:08:57;;;;;;;4.82;2.17;;;10.50;82.40;;;;;;5134596;27;20040;-80
2022/03/10 06:11:23;;;;;;;5.95;2.45;;;10.50;82.40;;;;;;5114160;27;20057;-82
2022/03/10 06:13:48;;;;;;;6.60;2.38;;;10.50;82.40;;;;;;5132602;27;20027;-82
2022/03/10 06:16:14;;;;;;;3.40;2.20;;;10.50;82.60;;;;;;5132445;27;20028;-82
2022/03/10 06:18:40;;;;;;;3.92;2.20;;;10.50;83.30;;;;;;5113078;27;20024;-81
2022/03/10 06:21:06;;;;;;;6.03;2.60;;;10.50;83.30;;;;;;5134643;27;20109;-82
2022/03/10 06:23:32;;;;;;;4.07;2.70;;;10.60;82.90;;;;;;5131994;27;20114;-82
2022/03/10 06:25:57;;;;;;;4.95;2.55;;;10.50;82.80;;;;;;5132199;27;20126;-82
2022/03/10 06:28:23;;;;;;;5.18;3.22;;;10.60;82.80;;;;;;5132359;27;20117;-81
2022/03/10 06:30:49;;;;;;;4.18;2.83;;;10.60;82.90;;;;;;5132263;27;20034;-81
2022/03/10 06:33:14;;;;;;;4.07;2.53;;;10.60;82.90;;;;;;5133853;27;20019;-81
2022/03/10 06:35:40;;;;;;;4.05;2.50;;;10.60;82.90;;;;;;5114574;27;20114;-81
2022/03/10 06:38:06;;;;;;;3.60;2.70;;;10.60;82.60;;;;;;5131720;27;20144;-81
2022/03/10 06:40:32;;;;;;;4.40;2.45;;;10.50;82.50;;;;;;5131999;27;20476;-82
2022/03/10 06:42:57;;;;;;;4.65;2.80;;;10.50;82.70;;;;;;5113710;27;20023;-80
2022/03/10 06:45:23;;;;;;;6.38;3.30;;;10.50;82.70;;;;;;5132186;27;20571;-80
2022/03/10 06:47:49;;;;;;;4.38;2.70;;;10.50;83.00;;;;;;5115466;27;20437;-80
2022/03/10 06:50:14;;;;;;;5.18;3.22;;;10.60;83.00;;;;;;5113094;27;20421;-81
2022/03/10 06:52:40;;;;;;;4.68;3.17;;;10.60;83.00;;;;;;5131374;27;20054;-80
2022/03/10 06:55:06;;;;;;;8.60;3.10;;;10.60;82.80;;;;;;5131952;27;20184;-80
2022/03/10 06:57:32;;;;;;;6.30;3.00;;;10.60;82.70;;;;;;5131138;27;20015;-79
2022/03/10 06:59:57;;;;;;;4.25;3.17;;;10.60;83.10;;;;;;5114296;27;20095;-79
2022/03/10 07:02:23;;;;;;;5.45;3.17;;;10.50;83.20;;;;;;5131514;27;20029;-80
2022/03/10 07:04:49;;;;;;;5.63;3.30;;;10.50;83.20;;;;;;5112850;27;20448;-80
2022/03/10 07:07:15;;;;;;;4.72;2.90;;;10.60;83.10;;;;;;5112862;27;20026;-80
2022/03/10 07:09:41;;;;;;;4.82;3.40;;;10.60;83.00;;;;;;5131879;27;20062;-80
2022/03/10 07:12:09;;;;;;;4.80;3.42;;;10.60;83.00;;;;;;5133844;27;20026;-80
2022/03/10 07:14:34;;;;;;;5.78;3.50;;;10.60;83.20;;;;;;5131470;27;20072;-80
2022/03/10 07:17:00;;;;;;;5.63;3.75;;;10.60;83.00;;;;;;5130661;27;20450;-81
2022/03/10 07:19:25;;;;;;;4.55;3.20;;;10.60;83.00;;;;;;5112538;27;20019;-81
2022/03/10 07:21:51;;;;;;;5.65;3.90;;;10.60;83.10;;;;;;5131056;27;20015;-82
2022/03/10 07:24:17;;;;;;;6.82;3.40;;;10.60;83.40;;;;;;5132608;27;20028;-82
2022/03/10 07:26:43;;;;;;;5.95;3.38;;;10.60;83.10;;;;;;5132204;27;20360;-82
2022/03/10 07:29:09;;;;;;;5.65;3.70;;;10.60;82.90;;;;;;5112380;27;20011;-81
2022/03/10 07:31:34;;;;;;;5.57;3.53;;;10.60;83.30;;;;;;5131158;27;20027;-79
2022/03/10 07:34:00;;;;;;;5.63;4.10;;;10.70;83.20;;;;;;5130653;27;20459;-81
2022/03/10 07:36:26;;;;;;;5.40;3.95;;;10.60;82.90;;;;;;5113086;27;20135;-80
2022/03/10 07:38:52;;;;;;;5.65;4.10;;;10.70;83.30;;;;;;5112514;27;20035;-80
2022/03/10 07:41:17;;;;;;;4.45;3.78;;;10.70;83.20;;;;;;5130836;27;20023;-81
2022/03/10 07:43:43;;;;;;;5.72;3.70;;;10.70;83.30;;;;;;5130822;27;20027;-79
2022/03/10 07:46:09;;;;;;;5.75;4.07;;;10.70;83.20;;;;;;5130081;27;20041;-79
2022/03/10 07:48:34;;;;;;;6.30;4.15;;;10.70;83.70;;;;;;5130463;27;20027;-79
2022/03/10 07:51:00;;;;;;;4.95;3.85;;;10.70;83.70;;;;;;5132205;27;20027;-80
2022/03/10 07:53:26;;;;;;;5.32;3.55;;;10.80;83.30;;;;;;5111606;28;20019;-79
2022/03/10 07:55:55;;;;;;;5.57;3.70;;;10.70;83.50;;;;;;5130154;28;20035;-80
2022/03/10 07:58:28;;;;;;;5.80;4.00;;;10.80;83.80;;;;;;5108609;28;20019;-78
2022/03/10 08:00:54;;;;;;;6.38;3.78;;;10.80;83.70;;;;;;5107734;28;20046;-79
2022/03/10 08:03:21;;;;;;;4.65;3.72;;;10.90;83.70;;;;;;5111753;28;20059;-79
2022/03/10 08:05:47;;;;;;;6.57;4.10;;;10.90;83.70;;;;;;5130918;27;20122;-79
2022/03/10 08:08:13;;;;;;;6.32;3.90;;;11.00;83.50;;;;;;5130402;27;20098;-79
2022/03/10 08:10:40;;;;;;;5.03;3.53;;;11.00;83.70;;;;;;5114576;27;20065;-80
2022/03/10 08:13:06;;;;;;;7.28;3.80;;;11.00;83.30;;;;;;5115009;27;20027;-80
2022/03/10 08:15:31;;;;;;;4.38;3.85;;;11.00;83.40;;;;;;5133669;27;20039;-80
2022/03/10 08:17:57;;;;;;;7.28;3.95;;;11.10;83.60;;;;;;5134099;27;20086;-80
2022/03/10 08:20:23;;;;;;;6.78;4.30;;;11.10;83.70;;;;;;5134821;27;20054;-80
2022/03/10 08:22:50;;;;;;;5.88;4.40;;;11.10;83.70;;;;;;5115135;27;20015;-79
2022/03/10 08:25:16;;;;;;;7.00;4.20;;;11.20;83.70;;;;;;5134729;27;20122;-80
2022/03/10 08:27:43;;;;;;;5.35;4.10;;;11.20;83.60;;;;;;5113010;27;20408;-79
2022/03/10 08:30:13;;;;;;;6.47;4.50;;;11.20;83.70;;;;;;5118145;27;20034;-78
2022/03/10 08:32:47;;;;;;;5.82;3.83;;;11.20;83.20;;;;;;5127279;27;20500;-78
2022/03/10 08:35:15;;;;;;;8.00;4.38;;;11.20;83.50;;;;;;5111558;27;20026;-79
2022/03/10 08:37:43;;;;;;;4.65;3.55;;;11.30;83.40;;;;;;5134582;27;20114;-79
2022/03/10 08:40:10;;;;;;;5.95;4.07;;;11.30;83.30;;;;;;5143601;27;20055;-87
2022/03/10 08:42:36;;;;;;;7.18;4.45;;;11.30;83.40;;;;;;5133759;27;20064;-87
2022/03/10 08:45:02;;;;;;;7.43;4.53;;;11.40;84.00;;;;;;5135531;27;20444;-88
2022/03/10 08:47:29;;;;;;;8.30;4.35;;;11.50;83.60;;;;;;5132786;27;20034;-87
2022/03/10 08:49:54;;;;;;;5.25;4.30;;;11.50;83.20;;;;;;5134146;27;20061;-87
2022/03/10 08:52:20;;;;;;;7.50;4.25;;;11.50;83.00;;;;;;5115194;27;20080;-87
2022/03/10 08:54:46;;;;;;;7.07;4.35;;;11.50;83.10;;;;;;5115502;27;20042;-88
2022/03/10 08:57:11;;;;;;;6.93;5.28;;;11.50;83.70;;;;;;5134576;27;20106;-80
2022/03/10 08:59:37;;;;;;;7.00;4.60;;;11.60;83.90;;;;;;5136320;27;20920;-75
2022/03/10 09:02:03;;;;;;;6.05;3.83;;;11.60;84.00;;;;;;5136970;27;20521;-75
2022/03/10 09:04:29;;;;;;;5.55;4.35;;;11.60;84.30;;;;;;5132418;27;20595;-74
2022/03/10 09:06:55;;;;;;;8.35;4.80;;;11.70;84.40;;;;;;5132279;27;20038;-75
2022/03/10 09:09:20;;;;;;;7.78;4.85;;;11.70;84.20;;;;;;5133120;27;20106;-75
2022/03/10 09:11:46;;;;;;;6.90;4.60;;;11.80;84.00;;;;;;5115428;27;20596;-75
2022/03/10 09:14:12;;;;;;;5.93;4.60;;;11.80;83.70;;;;;;5132496;27;20042;-75
2022/03/10 09:16:38;;;;;;;7.22;5.05;;;11.90;83.60;;;;;;5131875;27;20023;-75
2022/03/10 09:19:03;;;;;;;7.03;5.18;;;11.90;83.70;;;;;;5113299;27;20039;-75
2022/03/10 09:21:29;;;;;;;6.82;4.72;;;11.90;83.70;;;;;;5132165;27;20103;-75
2022/03/10 09:23:55;;;;;;;6.68;4.28;;;12.00;83.80;;;;;;5134226;27;20034;-75
2022/03/10 09:26:21;;;;;;;6.22;4.18;;;12.00;83.80;;;;;;5131396;27;20034;-75
2022/03/10 09:28:47;;;;;;;5.82;3.63;;;12.00;83.50;;;;;;5132829;27;20023;-76
2022/03/10 09:31:15;;;;;;;6.05;4.38;;;12.00;83.70;;;;;;5132903;27;20024;-75
2022/03/10 09:33:41;;;;;;;6.65;4.72;;;12.00;83.50;;;;;;5130980;27;20023;-75
2022/03/10 09:36:07;;;;;;;6.55;4.30;;;12.00;83.60;;;;;;5132143;27;20068;-77
2022/03/10 09:38:32;;;;;;;6.00;4.15;;;12.00;83.60;;;;;;5132972;27;20019;-75
2022/03/10 09:40:58;;;;;;;5.20;4.05;;;11.90;83.80;;;;;;5114607;27;20456;-75
2022/03/10 09:43:28;;;;;;;5.35;4.28;;;12.00;83.90;;;;;;5132782;27;20025;-75
2022/03/10 09:45:54;;;;;;;5.38;3.50;;;12.00;83.60;;;;;;5130152;27;20039;-74
2022/03/10 09:48:21;;;;;;;4.97;3.88;;;12.00;83.80;;;;;;5113594;27;20027;-74
2022/03/10 09:50:47;;;;;;;4.45;3.42;;;12.00;83.70;;;;;;5132842;27;20391;-75
2022/03/10 09:53:13;;;;;;;5.55;4.50;;;12.00;83.60;;;;;;5132314;27;20471;-74
2022/03/10 09:55:39;;;;;;;4.95;3.92;;;12.00;83.70;;;;;;5132715;27;20039;-74
2022/03/10 09:58:06;;;;;;;5.57;3.67;;;11.90;84.30;;;;;;5131908;27;20011;-74
2022/03/10 10:00:32;;;;;;;5.13;4.22;;;11.90;84.00;;;;;;5140932;27;20024;-75
2022/03/10 10:02:57;;;;;;;13.05;7.43;;;11.90;85.10;;;;;;5133492;27;20079;-75
2022/03/10 10:05:31;;;;;;;8.25;4.88;;;11.90;84.10;;;;;;5131945;27;20118;-75
2022/03/10 10:08:04;;;;;;;10.38;4.85;;;12.00;84.30;;;;;;5131144;27;20475;-74
2022/03/10 10:10:32;;;;;;;8.15;4.78;;;12.00;84.20;;;;;;5131517;27;20023;-74
2022/03/10 10:13:00;;;;;;;6.00;4.28;;;12.00;84.10;;;;;;5131751;27;20080;-74
2022/03/10 10:15:35;;;;;;;7.30;4.38;;;12.00;84.00;;;;;;5131976;27;20034;-75
2022/03/10 10:18:01;;;;;;;7.85;4.72;;;12.00;84.50;;;;;;5114637;27;20019;-74
2022/03/10 10:20:31;;;;;;;7.32;4.28;;;12.00;84.10;;;;;;5132055;27;20494;-74
2022/03/10 10:23:14;;;;;;;8.05;4.75;;;12.00;84.60;;;;;;5130815;27;20015;-75
2022/03/10 10:25:48;;;;;;;5.63;4.47;;;12.00;85.10;;;;;;5129316;27;20028;-75
2022/03/10 10:28:27;;;;;;;7.30;4.72;;;12.00;84.90;;;;;;5130687;27;20024;-74
2022/03/10 10:31:16;;;;;;;7.47;4.60;;;12.00;84.90;;;;;;5125824;27;20027;-75
2022/03/10 10:34:05;;;;;;;6.25;4.13;;;12.00;85.10;;;;;;5129562;27;20097;-74
2022/03/10 10:36:33;;;;;;;7.13;4.65;;;12.00;85.50;;;;;;5138113;27;20032;-74
2022/03/10 10:39:09;;;;;;;8.10;4.35;;;12.00;85.40;;;;;;5132105;27;20015;-74
2022/03/10 10:41:36;;;;;;;8.73;4.25;;;12.00;85.70;;;;;;5131137;27;20029;-74
2022/03/10 10:44:08;;;;;;;5.90;4.32;;;12.10;85.50;;;;;;5111777;27;20028;-74
2022/03/10 10:46:42;;;;;;;6.78;4.55;;;12.20;85.20;;;;;;5131596;27;20043;-77
2022/03/10 10:49:15;;;;;;;8.43;4.80;;;12.20;85.30;;;;;;5129401;27;20018;-74
2022/03/10 10:51:45;;;;;;;5.57;4.18;;;12.20;85.40;;;;;;5097349;27;20027;-74
2022/03/10 10:54:20;;;;;;;9.23;5.22;;;12.20;85.60;;;;;;5145493;27;20083;-75
2022/03/10 10:56:50;;;;;;;7.97;4.43;;;12.20;85.50;;;;;;5132569;27;20479;-75
2022/03/10 10:59:37;;;;;;;8.55;4.85;;;12.20;85.60;;;;;;5138920;27;20022;-75
2022/03/10 11:02:12;;;;;;;8.30;4.57;;;12.20;85.40;;;;;;5137013;27;20532;-74
2022/03/10 11:04:46;;;;;;;7.00;4.88;;;12.30;86.10;;;;;;5113780;27;20031;-74
2022/03/10 11:07:14;;;;;;;8.60;4.60;;;12.30;86.40;;;;;;5140631;27;20038;-77
2022/03/10 11:09:42;;;;;;;6.97;4.38;;;12.30;86.30;;;;;;5114371;27;20565;-75
2022/03/10 11:12:09;;;;;;;8.13;4.88;;;12.30;86.20;;;;;;5125266;27;20029;-75
2022/03/10 11:14:35;;;;;;;5.88;4.38;;;12.30;86.30;;;;;;5118443;27;20087;-77
2022/03/10 11:17:02;;;;;;;8.60;4.82;;;12.20;86.30;;;;;;5118666;27;20023;-76
2022/03/10 11:19:32;;;;;;;7.30;4.80;;;12.20;87.00;;;;;;5121244;27;20033;-76
2022/03/10 11:22:17;;;;;;;6.88;4.80;;;12.10;86.90;;;;;;5121770;27;20034;-75
2022/03/10 11:25:25;;;;;;;6.57;4.85;;;12.10;87.60;;;;;;5117910;27;20040;-76
2022/03/10 11:27:57;;;;;;;7.57;4.50;;;12.00;88.20;;;;;;5025712;28;20621;-75
2022/03/10 11:30:26;;;;;;;11.32;5.25;;;12.00;88.20;;;;;;5027528;28;20065;-76
2022/03/10 11:33:12;;;;;;;7.28;4.90;;;12.00;87.70;;;;;;5028865;28;20032;-76
2022/03/10 11:35:40;;;;;;;8.48;5.22;;;12.00;88.10;;;;;;5026765;28;20037;-76
2022/03/10 11:38:07;;;;;;;9.75;5.18;;;12.00;89.00;;;;;;5027330;28;20038;-76
2022/03/10 11:40:49;;;;;;;7.30;4.80;;;12.10;88.40;;;;;;5028250;28;20033;-75
2022/03/10 11:43:39;;;;;;;10.43;5.15;;;12.20;89.00;;;;;;5032180;28;20033;-75
2022/03/10 11:46:15;;;;;;;6.78;4.70;;;12.30;89.00;;;;;;5030428;28;20060;-74
2022/03/10 11:48:42;;;;;;;9.40;5.13;;;12.30;88.40;;;;;;5013578;28;20782;-74
2022/03/10 11:51:09;;;;;;;9.80;5.80;;;12.40;88.40;;;;;;5009512;28;20042;-75
2022/03/10 11:53:58;;;;;;;8.55;5.18;;;12.40;88.40;;;;;;5025129;28;20029;-75
2022/03/10 11:56:54;;;;;;;7.53;4.85;;;12.40;88.10;;;;;;5032514;28;20029;-74
2022/03/10 11:59:25;;;;;;;8.80;5.25;;;12.40;87.80;;;;;;5020925;28;20449;-76
2022/03/10 12:01:51;;;;;;;7.38;5.18;;;12.40;87.80;;;;;;5021104;28;20029;-77
2022/03/10 12:04:20;;;;;;;7.65;5.45;;;12.30;88.40;;;;;;5126588;27;20061;-76
2022/03/10 12:06:56;;;;;;;7.60;5.05;;;12.40;88.20;;;;;;5110370;28;20096;-76
2022/03/10 12:09:33;;;;;;;9.18;5.63;;;12.50;88.10;;;;;;5143917;27;20027;-76
2022/03/10 12:12:25;;;;;;;8.15;5.63;;;12.40;87.60;;;;;;5113311;27;20019;-76
2022/03/10 12:14:55;;;;;;;10.25;6.10;;;12.40;88.10;;;;;;5132247;27;20034;-76
2022/03/10 12:17:57;;;;;;;8.20;5.30;;;12.40;87.90;;;;;;5111157;28;20031;-76
2022/03/10 12:20:40;;;;;;;11.55;5.80;;;12.30;88.00;;;;;;5028101;28;20021;-76
2022/03/10 12:23:06;;;;;;;10.90;4.90;;;12.20;88.30;;;;;;5026918;28;20128;-76
2022/03/10 12:25:47;;;;;;;7.10;4.40;;;12.20;89.30;;;;;;5017718;28;20645;-77
2022/03/10 12:28:34;;;;;;;3.65;2.60;;;12.10;90.30;;;;;;5035663;28;20120;-75
2022/03/10 12:31:10;;;;;;;2.90;2.22;;;12.10;89.80;;;;;;5028920;28;20032;-73
2022/03/10 12:33:56;;;;;;;2.60;1.90;;;12.10;89.60;;;;;;5036583;28;20120;-74
2022/03/10 12:36:31;;;;;;;1.77;1.35;;;12.20;89.10;;;;;;5027747;28;20024;-73
2022/03/10 12:38:58;;;;;;;2.85;1.38;;;12.20;88.30;;;;;;4996322;28;20878;-73
2022/03/10 12:41:33;;;;;;;1.30;1.20;;;12.20;88.90;;;;;;5015000;28;20034;-73
2022/03/10 12:44:01;;;;;;;2.33;1.23;;;12.20;89.20;;;;;;5028446;28;20064;-74
2022/03/10 12:46:29;;;;;;;1.50;0.90;;;12.30;88.40;;;;;;5031049;28;20053;-74
2022/03/10 12:49:23;;;;;;;0.95;0.60;;;12.30;88.50;;;;;;5021722;28;20029;-74
2022/03/10 12:51:48;;;;;;;;;;;12.30;86.90;;;;;;5044012;28;20059;-74
2022/03/10 12:54:15;;;;;;;1.23;0.80;;;12.40;87.50;;;;;;5051329;28;19907;-74
2022/03/10 12:56:48;;;;;;;1.40;0.95;;;12.50;87.90;;;;;;5099507;28;20111;-74
2022/03/10 12:59:27;;;;;;;1.42;0.75;;;12.70;87.60;;;;;;5096545;28;20035;-74